»·PEaware :: N7119M KSBA-KBUR

N7119M :: KSBA-KBUR

FLIGHT INFORMATION

Flight Status: Arrived
Operator: Privately registered:
United States
More flights under this callsign
Pilot: Steve M. (17666)
Aircraft: CESSNA 172 SKYHAWK
(C172)
More flights by this aircraft type
Origin: KSBA Santa Barbara Mun
United States
Destination: KBUR Bob Hope-Burbank
United States
More flights between these airports :: More routes between these airports
Route: +
File this flight plan on PilotEdge
Remarks:
Altitude:
(Current/Filed)
7,500ft
Speed:
(Current/Filed)
0kts
Departed: 13-Jan-18 10:13 AM
Arrived: 13-Jan-18 11:01 AM
Distance/Time
Traveled:
74nm/0:48
Distance/Time
To Go:
Arrived

Flight Plot

Page will automatically refresh every two minutes.


Map Options




Map Legend


Flown Route
Filed Route
Departure Airport
Arrival Airport
Navaid (VOR, NDB)
Fix

Horizontal Profiles

Position Reports

Time Latitude Longitude Heading Altitude Ground
Speed
13-Jan-18 10:09 34.422664 -119.835593 340 10ft 0kts
13-Jan-18 10:10 34.422664 -119.835593 340 10ft 0kts
13-Jan-18 10:11 34.422664 -119.835593 340 10ft 0kts
13-Jan-18 10:12 34.422664 -119.835593 340 10ft 0kts
13-Jan-18 10:13 34.422707 -119.836732 270 12ft 4kts
13-Jan-18 10:14 34.425382 -119.837944 345 12ft 10kts
13-Jan-18 10:15 34.428256 -119.838840 348 13ft 14kts
13-Jan-18 10:16 34.430659 -119.839710 297 14ft 0kts
13-Jan-18 10:17 34.430659 -119.839710 297 14ft 0kts
13-Jan-18 10:18 34.430659 -119.839710 297 14ft 0kts
13-Jan-18 10:19 34.422381 -119.838202 172 349ft 69kts
13-Jan-18 10:20 34.401093 -119.831867 157 1437ft 79kts
13-Jan-18 10:21 34.378253 -119.819834 159 1586ft 94kts
13-Jan-18 10:22 34.351671 -119.810298 162 1599ft 104kts
13-Jan-18 10:23 34.324739 -119.794788 109 1466ft 115kts
13-Jan-18 10:24 34.340646 -119.771828 40 2620ft 85kts
13-Jan-18 10:25 34.341016 -119.746595 98 3717ft 74kts
13-Jan-18 10:26 34.337992 -119.722036 96 4667ft 78kts
13-Jan-18 10:27 34.334953 -119.694695 96 5579ft 80kts
13-Jan-18 10:28 34.332363 -119.669037 95 6460ft 79kts
13-Jan-18 10:29 34.329655 -119.641820 95 7261ft 84kts
13-Jan-18 10:30 34.326294 -119.608813 96 7523ft 122kts
13-Jan-18 10:31 34.322253 -119.569922 96 7512ft 112kts
13-Jan-18 10:32 34.318534 -119.532235 96 7512ft 113kts
13-Jan-18 10:33 34.314858 -119.494559 96 7512ft 113kts
13-Jan-18 10:34 34.311203 -119.457131 96 7511ft 106kts
13-Jan-18 10:35 34.307858 -119.422579 95 7514ft 110kts
13-Jan-18 10:36 34.304144 -119.384837 96 7511ft 110kts
13-Jan-18 10:37 34.300583 -119.348736 96 7512ft 107kts
13-Jan-18 10:38 34.297143 -119.313817 96 7512ft 107kts
13-Jan-18 10:39 34.293529 -119.277132 96 7512ft 114kts
13-Jan-18 10:40 34.289830 -119.239709 96 7512ft 113kts
13-Jan-18 10:41 34.286169 -119.203058 96 7512ft 112kts
13-Jan-18 10:42 34.282471 -119.165426 96 7512ft 116kts
13-Jan-18 10:43 34.278553 -119.126293 96 7512ft 117kts
13-Jan-18 10:44 34.274647 -119.087711 96 7512ft 117kts
13-Jan-18 10:45 34.270748 -119.048746 97 7512ft 118kts
13-Jan-18 10:46 34.267004 -119.011881 96 7512ft 118kts
13-Jan-18 10:47 34.263044 -118.972830 96 7512ft 118kts
13-Jan-18 10:48 34.259167 -118.934333 96 7512ft 118kts
13-Jan-18 10:49 34.255151 -118.895026 96 7330ft 128kts
13-Jan-18 10:50 34.250799 -118.852961 96 6837ft 128kts
13-Jan-18 10:51 34.246511 -118.811322 96 6348ft 127kts
13-Jan-18 10:52 34.242238 -118.770028 96 5862ft 127kts
13-Jan-18 10:53 34.237917 -118.728131 96 5369ft 127kts
13-Jan-18 10:54 34.233618 -118.687023 96 4885ft 127kts
13-Jan-18 10:55 34.229774 -118.649623 97 4444ft 127kts
13-Jan-18 10:56 34.225376 -118.618453 100 4074ft 127kts
13-Jan-18 10:57 34.219675 -118.586380 102 3689ft 127kts
13-Jan-18 10:58 34.214228 -118.555875 102 3319ft 125kts
13-Jan-18 10:59 34.209028 -118.527346 103 3277ft 117kts
13-Jan-18 11:00 34.203674 -118.499463 102 3278ft 117kts
13-Jan-18 11:01 34.198716 -118.472772 101 3278ft 117kts
13-Jan-18 11:02 34.197092 -118.444584 92 3086ft 110kts
13-Jan-18 11:03 34.196694 -118.419773 88 2327ft 107kts
13-Jan-18 11:04 34.197300 -118.396794 77 1684ft 84kts
13-Jan-18 11:05 34.197865 -118.378407 88 981ft 64kts
13-Jan-18 11:06 34.197832 -118.364855 90 721ft 44kts
13-Jan-18 11:07 34.198614 -118.360384 354 718ft 0kts
13-Jan-18 11:08 34.198614 -118.360384 354 718ft 0kts
13-Jan-18 11:09 34.198980 -118.362938 271 723ft 20kts
13-Jan-18 11:10 34.199952 -118.363980 92 725ft 14kts

Navigation Log

Ident Type
1. KSBA Airport
2. KBUR Airport